Time;durP1;ratioP1;P1;durP2;ratioP2;P2;SDS_P1;SDS_P2;PMS_P1;PMS_P2;Temp;Humidity;BMP_temperature;BMP_pressure;BME280_temperature;BME280_humidity;BME280_pressure;Samples;Min_cycle;Max_cycle;Signal;HPM_P1;HPM_P2
2022/02/24 00:00:19;;;;;;;5.47;2.40;;;5.30;99.90;;;;;;5034524;28;20484;-54
2022/02/24 00:02:46;;;;;;;7.10;2.50;;;5.20;99.90;;;;;;5035305;28;21035;-51
2022/02/24 00:05:13;;;;;;;5.83;2.80;;;5.10;99.90;;;;;;5034679;28;20506;-54
2022/02/24 00:07:40;;;;;;;9.87;2.47;;;5.10;99.90;;;;;;5034462;28;20534;-55
2022/02/24 00:10:10;;;;;;;3.03;2.83;;;5.10;99.90;;;;;;5034572;28;20522;-55
2022/02/24 00:12:36;;;;;;;3.50;2.50;;;5.10;99.90;;;;;;5034448;28;20472;-51
2022/02/24 00:15:04;;;;;;;5.10;3.00;;;5.10;99.90;;;;;;5035012;28;20859;-63
2022/02/24 00:17:32;;;;;;;6.60;2.33;;;5.10;99.90;;;;;;5035487;28;20448;-54
2022/02/24 00:19:59;;;;;;;6.23;2.60;;;5.00;99.90;;;;;;5034416;28;20998;-55
2022/02/24 00:22:26;;;;;;;5.73;2.20;;;5.00;99.90;;;;;;5034425;28;20540;-54
2022/02/24 00:24:53;;;;;;;3.67;2.60;;;5.00;99.90;;;;;;5034534;28;20495;-55
2022/02/24 00:27:19;;;;;;;6.13;2.67;;;4.90;99.90;;;;;;5034378;28;20452;-51
2022/02/24 00:29:46;;;;;;;5.70;2.40;;;4.90;99.90;;;;;;5035103;28;20933;-62
2022/02/24 00:32:13;;;;;;;4.13;3.37;;;4.90;99.90;;;;;;5034757;28;20843;-51
2022/02/24 00:34:41;;;;;;;4.40;2.37;;;4.90;99.90;;;;;;5035391;28;20925;-53
2022/02/24 00:37:07;;;;;;;19.23;4.50;;;4.90;99.90;;;;;;5038061;28;20448;-52
2022/02/24 00:39:34;;;;;;;5.87;3.00;;;4.90;99.90;;;;;;5037899;28;20476;-54
2022/02/24 00:42:01;;;;;;;15.30;3.00;;;4.90;99.90;;;;;;5037707;28;20929;-52
2022/02/24 00:44:27;;;;;;;7.60;3.27;;;4.90;99.90;;;;;;5039237;28;20452;-57
2022/02/24 00:46:54;;;;;;;6.80;3.20;;;4.80;99.90;;;;;;5037908;28;20452;-52
2022/02/24 00:49:22;;;;;;;7.23;3.37;;;4.80;99.90;;;;;;5037861;28;20511;-49
2022/02/24 00:51:50;;;;;;;6.60;3.43;;;4.80;99.90;;;;;;5037745;28;20461;-56
2022/02/24 00:54:17;;;;;;;6.00;3.00;;;4.80;99.90;;;;;;5037541;28;20472;-53
2022/02/24 00:56:44;;;;;;;7.27;2.93;;;4.70;99.90;;;;;;5037409;28;20448;-53
2022/02/24 00:59:10;;;;;;;3.90;3.10;;;4.70;99.90;;;;;;5037797;28;20550;-48
2022/02/24 01:01:37;;;;;;;9.30;3.90;;;4.60;99.90;;;;;;5037365;28;20506;-51
2022/02/24 01:04:04;;;;;;;4.60;3.00;;;4.60;99.90;;;;;;5037207;28;20953;-51
2022/02/24 01:06:31;;;;;;;3.20;2.27;;;4.50;99.90;;;;;;5038812;28;20444;-58
2022/02/24 01:08:59;;;;;;;3.60;2.13;;;4.50;99.90;;;;;;5037584;28;20476;-53
2022/02/24 01:11:26;;;;;;;7.13;3.30;;;4.50;99.90;;;;;;5037081;28;20440;-54
2022/02/24 01:13:52;;;;;;;12.83;2.77;;;4.40;99.90;;;;;;5037251;28;20480;-52
2022/02/24 01:16:19;;;;;;;6.27;3.13;;;4.40;99.90;;;;;;5037126;28;20713;-53
2022/02/24 01:18:46;;;;;;;8.77;3.20;;;4.40;99.90;;;;;;5037036;28;20527;-51
2022/02/24 01:21:13;;;;;;;6.10;2.77;;;4.40;99.90;;;;;;5038000;28;20480;-53
2022/02/24 01:23:39;;;;;;;6.80;2.80;;;4.40;99.90;;;;;;5038138;28;20484;-58
2022/02/24 01:26:07;;;;;;;10.87;3.20;;;4.40;99.90;;;;;;5037357;28;20510;-55
2022/02/24 01:28:34;;;;;;;4.50;2.20;;;4.50;99.90;;;;;;5037082;28;20473;-61
2022/02/24 01:31:01;;;;;;;5.70;2.27;;;4.40;99.90;;;;;;5036883;28;20445;-52
2022/02/24 01:33:28;;;;;;;3.10;2.53;;;4.40;99.90;;;;;;5036918;28;20469;-58
2022/02/24 01:35:54;;;;;;;10.37;3.70;;;4.40;99.90;;;;;;5037464;28;20494;-57
2022/02/24 01:38:21;;;;;;;7.13;2.60;;;4.40;99.90;;;;;;5037598;28;20526;-55
2022/02/24 01:40:48;;;;;;;5.57;3.27;;;4.40;99.90;;;;;;5037450;28;20490;-59
2022/02/24 01:43:16;;;;;;;5.17;2.73;;;4.40;99.90;;;;;;5037855;28;20510;-55
2022/02/24 01:45:45;;;;;;;3.73;2.27;;;4.50;99.90;;;;;;5035672;28;20432;-56
2022/02/24 01:48:12;;;;;;;5.63;3.00;;;4.50;99.90;;;;;;5036608;28;20522;-52
2022/02/24 01:50:39;;;;;;;5.53;3.10;;;4.50;99.90;;;;;;5037697;28;20490;-57
2022/02/24 01:53:06;;;;;;;4.57;2.80;;;4.50;99.90;;;;;;5037284;28;20455;-52
2022/02/24 01:55:33;;;;;;;5.50;2.33;;;4.40;99.90;;;;;;5036554;28;20510;-51
2022/02/24 01:58:00;;;;;;;4.87;2.33;;;4.40;99.90;;;;;;5036501;28;20514;-53
2022/02/24 02:00:28;;;;;;;5.33;2.87;;;4.30;99.90;;;;;;5036100;28;20484;-56
2022/02/24 02:02:55;;;;;;;2.73;2.10;;;4.30;99.90;;;;;;5036552;28;20510;-54
2022/02/24 02:05:22;;;;;;;6.90;2.20;;;4.30;99.90;;;;;;5037355;28;20457;-57
2022/02/24 02:07:48;;;;;;;7.00;2.40;;;4.30;99.90;;;;;;5036535;28;20510;-54
2022/02/24 02:10:15;;;;;;;4.97;2.70;;;4.20;99.90;;;;;;5036108;28;20845;-59
2022/02/24 02:12:49;;;;;;;6.07;2.87;;;4.20;99.90;;;;;;5035935;28;20471;-54
2022/02/24 02:15:16;;;;;;;4.23;2.60;;;4.20;99.90;;;;;;5036180;28;20921;-51
2022/02/24 02:17:44;;;;;;;15.37;2.83;;;4.20;99.90;;;;;;5036276;28;20448;-54
2022/02/24 02:20:12;;;;;;;11.63;2.40;;;4.20;99.90;;;;;;5036859;28;20492;-59
2022/02/24 02:22:42;;;;;;;6.80;5.30;;;4.10;99.90;;;;;;5036031;28;20441;-53
2022/02/24 02:25:09;;;;;;;3.07;2.20;;;4.10;99.90;;;;;;5035800;28;20484;-55
2022/02/24 02:27:38;;;;;;;13.53;2.80;;;4.10;99.90;;;;;;5035838;28;20473;-55
2022/02/24 02:30:07;;;;;;;5.13;2.13;;;4.00;99.90;;;;;;5035544;28;20464;-54
2022/02/24 02:32:33;;;;;;;4.47;2.17;;;4.00;99.90;;;;;;5036060;28;20479;-58
2022/02/24 02:35:00;;;;;;;4.07;2.00;;;4.00;99.90;;;;;;5036751;28;20522;-55
2022/02/24 02:37:27;;;;;;;4.27;2.20;;;4.00;99.90;;;;;;5035616;28;20486;-54
2022/02/24 02:39:55;;;;;;;6.50;2.40;;;4.00;99.90;;;;;;5035458;28;20507;-55
2022/02/24 02:42:21;;;;;;;5.20;2.30;;;4.10;99.90;;;;;;5035710;28;20483;-52
2022/02/24 02:44:48;;;;;;;7.30;2.13;;;4.10;99.90;;;;;;5035514;28;20479;-54
2022/02/24 02:47:15;;;;;;;5.93;2.40;;;4.10;99.90;;;;;;5036372;28;20459;-58
2022/02/24 02:49:41;;;;;;;4.77;2.10;;;4.10;99.90;;;;;;5036036;28;20473;-54
2022/02/24 02:52:08;;;;;;;6.53;2.20;;;4.10;99.90;;;;;;5035405;28;20445;-52
2022/02/24 02:54:35;;;;;;;4.80;2.17;;;4.10;99.90;;;;;;5035129;28;20948;-54
2022/02/24 02:57:04;;;;;;;4.30;2.57;;;4.10;99.90;;;;;;5035233;28;20452;-55
2022/02/24 02:59:30;;;;;;;5.30;2.17;;;4.10;99.90;;;;;;5035024;28;20868;-54
2022/02/24 03:01:57;;;;;;;6.83;2.73;;;5.40;99.90;;;;;;5035158;28;20562;-52
2022/02/24 03:04:24;;;;;;;5.27;2.20;;;4.00;99.90;;;;;;5035219;28;20845;-59
2022/02/24 03:06:51;;;;;;;4.37;2.50;;;4.00;99.90;;;;;;5035997;28;20457;-61
2022/02/24 03:09:18;;;;;;;2.20;1.80;;;4.00;99.90;;;;;;5035840;28;20483;-50
2022/02/24 03:11:45;;;;;;;7.17;2.70;;;4.00;99.90;;;;;;5035381;28;20452;-51
2022/02/24 03:14:13;;;;;;;4.07;2.37;;;4.00;99.90;;;;;;5035868;28;20461;-56
2022/02/24 03:16:39;;;;;;;2.10;1.90;;;4.00;99.90;;;;;;5035197;28;20433;-55
2022/02/24 03:19:08;;;;;;;7.90;2.07;;;4.00;99.90;;;;;;5034943;28;20849;-58
2022/02/24 03:21:35;;;;;;;4.83;2.40;;;4.10;99.90;;;;;;5034878;28;20535;-54
2022/02/24 03:24:02;;;;;;;4.10;1.97;;;4.10;99.90;;;;;;5035117;28;20510;-53
2022/02/24 03:26:28;;;;;;;9.43;2.50;;;4.10;99.90;;;;;;5034877;28;20771;-54
2022/02/24 03:28:55;;;;;;;4.10;2.50;;;4.10;99.90;;;;;;5036384;28;20452;-60
2022/02/24 03:31:24;;;;;;;3.20;1.80;;;4.10;99.90;;;;;;5035149;28;20448;-55
2022/02/24 03:33:50;;;;;;;5.57;2.37;;;4.10;99.90;;;;;;5034810;28;20448;-57
2022/02/24 03:36:17;;;;;;;8.13;2.90;;;4.10;99.90;;;;;;5034758;28;20445;-53
2022/02/24 03:38:44;;;;;;;5.67;2.70;;;4.10;99.90;;;;;;5034929;28;20448;-55
2022/02/24 03:41:11;;;;;;;3.30;1.90;;;4.10;99.90;;;;;;5034775;28;20476;-61
2022/02/24 03:43:37;;;;;;;7.53;2.30;;;4.00;99.90;;;;;;5036358;28;20518;-58
2022/02/24 03:46:04;;;;;;;4.27;2.33;;;4.00;99.90;;;;;;5034808;28;20551;-53
2022/02/24 03:48:32;;;;;;;2.20;1.53;;;4.00;99.90;;;;;;5034847;28;20448;-54
2022/02/24 03:50:58;;;;;;;7.90;2.37;;;4.00;99.90;;;;;;5034675;28;20506;-56
2022/02/24 03:53:25;;;;;;;3.40;2.10;;;4.00;99.90;;;;;;5034726;28;20465;-53
2022/02/24 03:55:52;;;;;;;5.43;2.67;;;4.00;99.90;;;;;;5034729;28;20949;-50
2022/02/24 03:58:18;;;;;;;8.30;2.10;;;4.00;99.90;;;;;;5035264;28;20497;-52
2022/02/24 04:00:45;;;;;;;4.90;2.70;;;4.00;99.90;;;;;;5034381;28;20476;-56
2022/02/24 04:03:12;;;;;;;3.03;2.73;;;4.00;99.90;;;;;;5034574;28;20453;-61
2022/02/24 04:05:40;;;;;;;5.53;2.43;;;3.90;99.90;;;;;;5034678;28;20487;-57
2022/02/24 04:08:06;;;;;;;6.60;3.23;;;3.90;99.90;;;;;;5034622;28;20507;-55
2022/02/24 04:10:33;;;;;;;3.97;2.10;;;3.90;99.90;;;;;;5038491;28;20469;-54
2022/02/24 04:13:00;;;;;;;4.47;1.53;;;3.90;99.90;;;;;;5039180;28;20502;-54
2022/02/24 04:15:26;;;;;;;4.40;2.40;;;3.90;99.90;;;;;;5038008;28;20463;-61
2022/02/24 04:17:53;;;;;;;9.43;2.67;;;3.90;99.90;;;;;;5038285;28;20497;-51
2022/02/24 04:20:20;;;;;;;3.57;2.20;;;3.90;99.90;;;;;;5038145;28;20468;-51
2022/02/24 04:22:48;;;;;;;11.87;3.93;;;3.90;99.90;;;;;;5038321;28;20472;-53
2022/02/24 04:25:15;;;;;;;4.40;2.77;;;3.90;99.90;;;;;;5039133;28;20975;-56
2022/02/24 04:27:49;;;;;;;5.63;2.20;;;4.00;99.90;;;;;;5038362;28;20464;-51
2022/02/24 04:30:17;;;;;;;7.63;2.90;;;4.00;99.90;;;;;;5038018;28;20479;-54
2022/02/24 04:32:44;;;;;;;4.60;2.93;;;4.00;99.90;;;;;;5038097;28;20452;-54
2022/02/24 04:35:12;;;;;;;5.43;2.20;;;3.90;99.90;;;;;;5037942;28;20468;-54
2022/02/24 04:37:39;;;;;;;5.77;2.40;;;3.90;99.90;;;;;;5038222;28;20793;-58
2022/02/24 04:40:09;;;;;;;6.33;3.90;;;3.90;99.90;;;;;;5038920;28;20608;-58
2022/02/24 04:42:35;;;;;;;6.93;2.67;;;3.90;99.90;;;;;;5037934;28;20484;-55
2022/02/24 04:45:02;;;;;;;4.50;3.10;;;3.90;99.90;;;;;;5037847;28;20476;-55
2022/02/24 04:47:29;;;;;;;4.20;2.23;;;3.90;99.90;;;;;;5037553;28;20734;-54
2022/02/24 04:49:56;;;;;;;8.20;3.03;;;3.90;99.90;;;;;;5037678;28;20448;-53
2022/02/24 04:52:22;;;;;;;4.47;3.27;;;3.90;99.90;;;;;;5038017;28;20433;-53
2022/02/24 04:54:49;;;;;;;3.93;2.67;;;3.90;99.90;;;;;;5038291;28;20851;-53
2022/02/24 04:57:17;;;;;;;11.37;2.30;;;3.90;99.90;;;;;;5037672;28;20511;-55
2022/02/24 04:59:43;;;;;;;7.47;3.10;;;3.90;99.90;;;;;;5037537;28;20545;-52
2022/02/24 05:02:10;;;;;;;4.00;2.33;;;3.90;99.90;;;;;;5037163;28;20988;-54
2022/02/24 05:04:37;;;;;;;15.73;2.93;;;3.90;99.90;;;;;;5037475;28;20448;-55
2022/02/24 05:07:04;;;;;;;3.50;2.10;;;4.00;99.90;;;;;;5038461;28;20453;-61
2022/02/24 05:09:30;;;;;;;3.53;1.90;;;3.90;99.90;;;;;;5038472;28;20924;-59
2022/02/24 05:11:57;;;;;;;6.37;2.73;;;4.00;99.90;;;;;;5037289;28;20891;-54
2022/02/24 05:14:25;;;;;;;5.03;2.50;;;4.00;99.90;;;;;;5037063;28;20930;-54
2022/02/24 05:16:52;;;;;;;6.70;2.93;;;4.00;99.90;;;;;;5037281;28;20448;-56
2022/02/24 05:19:18;;;;;;;3.33;2.40;;;4.00;99.90;;;;;;5037129;28;20514;-52
2022/02/24 05:21:45;;;;;;;3.77;2.97;;;4.00;99.90;;;;;;5037089;28;20769;-53
2022/02/24 05:24:11;;;;;;;6.63;2.93;;;3.90;99.90;;;;;;5038342;28;20662;-54
2022/02/24 05:26:38;;;;;;;5.10;2.77;;;3.90;99.90;;;;;;5037012;28;20480;-55
2022/02/24 05:29:05;;;;;;;3.33;2.60;;;3.90;99.90;;;;;;5036865;28;20456;-54
2022/02/24 05:31:33;;;;;;;5.10;3.10;;;3.90;99.90;;;;;;5036909;28;20465;-54
2022/02/24 05:34:00;;;;;;;4.23;2.40;;;3.90;99.90;;;;;;5036978;28;20448;-51
2022/02/24 05:36:27;;;;;;;5.83;2.53;;;3.90;99.90;;;;;;5037421;28;20843;-59
2022/02/24 05:38:54;;;;;;;3.47;2.40;;;3.90;99.90;;;;;;5037578;28;20542;-55
2022/02/24 05:41:21;;;;;;;6.57;2.63;;;3.90;99.90;;;;;;5036415;28;20499;-51
2022/02/24 05:43:50;;;;;;;6.80;2.40;;;3.90;99.90;;;;;;5036736;28;20464;-54
2022/02/24 05:46:17;;;;;;;3.47;2.20;;;3.90;99.90;;;;;;5036748;28;20487;-51
2022/02/24 05:48:45;;;;;;;4.13;2.20;;;3.90;99.90;;;;;;5036692;28;20505;-50
2022/02/24 05:51:12;;;;;;;3.57;2.43;;;3.80;99.90;;;;;;5037080;28;20472;-61
2022/02/24 05:53:38;;;;;;;4.73;2.43;;;3.80;99.90;;;;;;5037036;28;20452;-51
2022/02/24 05:56:05;;;;;;;5.37;2.40;;;3.80;99.90;;;;;;5036452;28;20534;-54
2022/02/24 05:58:33;;;;;;;10.43;2.80;;;3.80;99.90;;;;;;5036657;28;20491;-52
2022/02/24 06:00:59;;;;;;;3.67;2.37;;;3.90;99.90;;;;;;5036158;28;20510;-54
2022/02/24 06:03:26;;;;;;;6.40;3.20;;;3.90;99.90;;;;;;5037450;28;20526;-58
2022/02/24 06:05:56;;;;;;;6.00;3.27;;;3.90;99.90;;;;;;5036606;28;20981;-54
2022/02/24 06:08:23;;;;;;;6.93;3.37;;;3.50;99.90;;;;;;5036345;28;20448;-54
2022/02/24 06:10:50;;;;;;;6.90;3.70;;;4.00;99.90;;;;;;5036236;28;20473;-57
2022/02/24 06:13:16;;;;;;;7.80;4.60;;;4.10;99.90;;;;;;5036310;28;20546;-54
2022/02/24 06:15:43;;;;;;;8.07;4.27;;;4.00;99.90;;;;;;5036092;28;20464;-55
2022/02/24 06:18:11;;;;;;;4.10;3.37;;;4.10;99.90;;;;;;5037488;28;20499;-56
2022/02/24 06:20:39;;;;;;;12.20;2.90;;;4.10;99.90;;;;;;5036006;28;20452;-55
2022/02/24 06:23:07;;;;;;;8.93;3.50;;;4.10;99.90;;;;;;5035912;28;20933;-54
2022/02/24 06:25:33;;;;;;;7.63;3.47;;;4.10;99.90;;;;;;5035911;28;20460;-56
2022/02/24 06:28:00;;;;;;;7.47;3.50;;;4.10;99.90;;;;;;5036128;28;20446;-53
2022/02/24 06:30:28;;;;;;;2.90;2.60;;;4.20;99.90;;;;;;5035717;28;20546;-54
2022/02/24 06:32:54;;;;;;;6.10;3.00;;;4.20;99.90;;;;;;5036772;28;20745;-55
2022/02/24 06:35:21;;;;;;;7.97;3.70;;;4.30;99.90;;;;;;5036120;28;20902;-53
2022/02/24 06:37:48;;;;;;;6.93;3.80;;;4.20;99.90;;;;;;5037140;28;20476;-67
2022/02/24 06:40:16;;;;;;;6.47;3.30;;;4.20;99.90;;;;;;5036125;28;20499;-59
2022/02/24 06:42:43;;;;;;;5.30;3.27;;;4.30;99.90;;;;;;5035480;28;20541;-57
2022/02/24 06:45:10;;;;;;;6.93;3.27;;;4.20;99.90;;;;;;5035642;28;20878;-61
2022/02/24 06:47:37;;;;;;;3.53;2.60;;;4.20;99.90;;;;;;5035654;28;20460;-59
2022/02/24 06:50:04;;;;;;;5.73;2.70;;;4.30;99.90;;;;;;5035626;28;20444;-57
2022/02/24 06:52:31;;;;;;;7.03;3.80;;;4.30;99.90;;;;;;5035281;28;20472;-59
2022/02/24 06:54:58;;;;;;;5.10;3.23;;;4.30;99.90;;;;;;5035474;28;20455;-59
2022/02/24 06:57:26;;;;;;;8.20;4.00;;;4.40;99.90;;;;;;5035215;28;20473;-58
2022/02/24 06:59:53;;;;;;;5.97;3.17;;;4.40;99.90;;;;;;5035240;28;20464;-58
2022/02/24 07:02:20;;;;;;;6.30;3.00;;;4.40;99.90;;;;;;5035202;28;20496;-59
2022/02/24 07:04:47;;;;;;;4.00;3.60;;;4.50;99.90;;;;;;5035885;28;20786;-61
2022/02/24 07:07:13;;;;;;;6.00;2.67;;;4.50;99.90;;;;;;5035409;28;20976;-59
2022/02/24 07:09:40;;;;;;;4.97;3.00;;;4.50;99.90;;;;;;5035106;28;20740;-59
2022/02/24 07:12:08;;;;;;;8.50;3.43;;;4.60;99.90;;;;;;5035130;28;20475;-56
2022/02/24 07:14:36;;;;;;;4.30;2.97;;;4.60;99.90;;;;;;5035158;28;20452;-59
2022/02/24 07:17:02;;;;;;;6.13;3.00;;;4.70;99.90;;;;;;5034978;28;20491;-58
2022/02/24 07:19:29;;;;;;;6.87;4.43;;;4.80;99.90;;;;;;5035280;28;20530;-60
2022/02/24 07:21:56;;;;;;;6.23;5.30;;;4.90;99.90;;;;;;5034930;28;20578;-55
2022/02/24 07:24:22;;;;;;;5.43;2.87;;;4.80;99.90;;;;;;5035486;28;20510;-58
2022/02/24 07:26:49;;;;;;;7.20;3.80;;;4.90;99.90;;;;;;5034822;28;20967;-56
2022/02/24 07:29:16;;;;;;;5.70;3.53;;;4.90;99.90;;;;;;5035020;28;20445;-57
2022/02/24 07:31:44;;;;;;;5.93;3.80;;;4.90;99.90;;;;;;5035032;28;20553;-58
2022/02/24 07:34:11;;;;;;;5.23;3.40;;;4.90;99.90;;;;;;5035507;28;20455;-59
2022/02/24 07:36:39;;;;;;;4.03;2.40;;;5.00;99.90;;;;;;5034687;28;20972;-53
2022/02/24 07:39:10;;;;;;;5.13;2.47;;;5.00;99.90;;;;;;5034914;28;20477;-59
2022/02/24 07:41:38;;;;;;;3.30;2.60;;;5.10;99.90;;;;;;5034511;28;20469;-58
2022/02/24 07:44:06;;;;;;;3.53;2.27;;;5.20;99.90;;;;;;5035308;28;20444;-58
2022/02/24 07:46:33;;;;;;;4.50;2.63;;;5.20;99.90;;;;;;5038939;28;20472;-56
2022/02/24 07:49:01;;;;;;;4.33;2.50;;;6.20;99.90;;;;;;5038902;28;20507;-57
2022/02/24 07:51:28;;;;;;;5.90;2.67;;;5.30;99.90;;;;;;5038783;28;20514;-59
2022/02/24 07:53:54;;;;;;;4.73;2.60;;;5.40;99.90;;;;;;5038656;28;20896;-61
2022/02/24 07:56:21;;;;;;;5.53;2.60;;;5.40;99.90;;;;;;5038415;28;20448;-58
2022/02/24 07:58:49;;;;;;;5.87;2.63;;;5.50;99.90;;;;;;5038756;28;20511;-59
2022/02/24 08:01:17;;;;;;;11.13;2.70;;;5.50;99.90;;;;;;5039066;28;20925;-59
2022/02/24 08:03:43;;;;;;;3.93;1.97;;;5.60;99.90;;;;;;5038563;28;20484;-63
2022/02/24 08:06:11;;;;;;;4.07;2.37;;;5.60;99.90;;;;;;5038604;28;20452;-57
2022/02/24 08:08:38;;;;;;;7.50;3.40;;;5.70;99.90;;;;;;5038705;28;20476;-58
2022/02/24 08:11:05;;;;;;;4.20;2.57;;;5.70;99.90;;;;;;5038297;28;20467;-53
2022/02/24 08:13:31;;;;;;;7.70;2.53;;;5.80;99.90;;;;;;5038537;28;20456;-55
2022/02/24 08:15:58;;;;;;;6.03;2.10;;;6.00;99.90;;;;;;5038368;28;20448;-61
2022/02/24 08:18:25;;;;;;;6.60;2.50;;;6.00;99.90;;;;;;5038463;28;20564;-59
2022/02/24 08:20:52;;;;;;;5.60;2.10;;;6.10;99.90;;;;;;5038367;28;20464;-58
2022/02/24 08:23:20;;;;;;;2.53;2.27;;;6.20;99.90;;;;;;5038309;28;20496;-56
2022/02/24 08:25:47;;;;;;;4.03;1.93;;;6.30;99.90;;;;;;5048889;28;20577;-54
2022/02/24 08:28:14;;;;;;;5.97;2.63;;;6.30;99.90;;;;;;5058339;28;20491;-61
2022/02/24 08:30:41;;;;;;;11.07;3.13;;;6.40;99.90;;;;;;5058056;28;20447;-55
2022/02/24 08:33:07;;;;;;;4.73;2.13;;;6.60;99.90;;;;;;5057818;28;20494;-55
2022/02/24 08:35:36;;;;;;;2.40;1.50;;;6.70;99.90;;;;;;5057964;28;20508;-52
2022/02/24 08:38:03;;;;;;;3.87;2.27;;;6.80;99.90;;;;;;5057285;28;20448;-57
2022/02/24 08:40:32;;;;;;;4.73;1.93;;;7.00;99.90;;;;;;5058431;28;20459;-57
2022/02/24 08:42:59;;;;;;;4.33;2.20;;;7.10;99.90;;;;;;5057758;28;20488;-55
2022/02/24 08:45:26;;;;;;;4.03;2.50;;;7.20;99.90;;;;;;5057914;28;20469;-53
2022/02/24 08:47:53;;;;;;;4.90;2.90;;;7.20;99.90;;;;;;5057594;28;20427;-55
2022/02/24 08:50:23;;;;;;;3.00;1.97;;;7.20;99.90;;;;;;5056863;28;20457;-54
2022/02/24 08:52:50;;;;;;;2.20;2.00;;;7.20;99.90;;;;;;5057217;28;20450;-55
2022/02/24 08:55:16;;;;;;;6.40;2.03;;;7.30;99.90;;;;;;5056683;28;20460;-50
2022/02/24 08:57:44;;;;;;;2.47;1.60;;;7.30;99.90;;;;;;5056506;28;20436;-56
2022/02/24 09:00:12;;;;;;;4.20;2.10;;;7.40;99.90;;;;;;5041830;28;20490;-55
2022/02/24 09:02:39;;;;;;;6.13;1.53;;;7.50;99.90;;;;;;5042111;28;20492;-56
2022/02/24 09:05:07;;;;;;;4.27;2.13;;;7.50;99.90;;;;;;5042212;28;20448;-56
2022/02/24 09:07:33;;;;;;;4.13;1.73;;;7.60;99.90;;;;;;5041943;28;20538;-56
2022/02/24 09:10:00;;;;;;;5.33;2.10;;;7.70;99.90;;;;;;5042483;28;20491;-51
2022/02/24 09:12:27;;;;;;;2.97;1.93;;;7.80;99.90;;;;;;5041808;28;20856;-56
2022/02/24 09:14:55;;;;;;;3.57;2.27;;;8.00;99.90;;;;;;5040812;28;20963;-59
2022/02/24 09:17:22;;;;;;;4.73;2.00;;;8.10;99.90;;;;;;5040906;28;20455;-57
2022/02/24 09:19:50;;;;;;;6.47;2.83;;;8.20;99.90;;;;;;5041024;28;20538;-58
2022/02/24 09:22:17;;;;;;;2.30;2.10;;;8.30;99.90;;;;;;5040709;28;20488;-57
2022/02/24 09:24:44;;;;;;;4.20;1.97;;;8.40;99.90;;;;;;5040448;28;20469;-51
2022/02/24 09:27:11;;;;;;;10.43;2.90;;;8.50;99.90;;;;;;5040657;28;20441;-56
2022/02/24 09:29:39;;;;;;;3.43;2.13;;;8.60;99.90;;;;;;5040373;28;20491;-54
2022/02/24 09:32:07;;;;;;;2.37;1.70;;;8.70;99.90;;;;;;5040201;28;20479;-57
2022/02/24 09:34:34;;;;;;;6.80;2.13;;;8.80;99.90;;;;;;5040385;28;20440;-56
2022/02/24 09:37:01;;;;;;;4.40;1.77;;;8.90;99.90;;;;;;5040762;28;20468;-62
2022/02/24 09:39:28;;;;;;;8.10;2.10;;;9.00;99.90;;;;;;5040467;28;20464;-57
2022/02/24 09:41:57;;;;;;;6.50;2.10;;;9.10;99.90;;;;;;5038120;28;20502;-57
2022/02/24 09:44:23;;;;;;;5.83;2.90;;;9.30;99.90;;;;;;5048142;28;20423;-58
2022/02/24 09:46:53;;;;;;;7.63;3.03;;;9.40;99.90;;;;;;5040658;28;20456;-55
2022/02/24 09:49:21;;;;;;;3.27;2.37;;;9.60;99.90;;;;;;5039213;28;20530;-57
2022/02/24 09:51:48;;;;;;;6.80;2.50;;;9.70;99.90;;;;;;5037744;28;20460;-60
2022/02/24 09:54:15;;;;;;;3.10;1.90;;;9.80;99.90;;;;;;5041374;28;20921;-58
2022/02/24 09:56:43;;;;;;;5.20;2.13;;;9.80;99.90;;;;;;5040856;28;20473;-61
2022/02/24 09:59:12;;;;;;;5.03;2.53;;;10.00;99.90;;;;;;5036213;28;20514;-58
2022/02/24 10:01:41;;;;;;;3.77;1.87;;;10.20;99.90;;;;;;5037266;28;20485;-58
2022/02/24 10:04:09;;;;;;;3.40;2.10;;;10.30;99.90;;;;;;5037089;28;20537;-57
2022/02/24 10:06:41;;;;;;;7.07;3.10;;;10.50;99.90;;;;;;5036245;28;20483;-57
2022/02/24 10:09:09;;;;;;;7.93;2.90;;;10.60;99.90;;;;;;5036923;28;20441;-58
2022/02/24 10:11:38;;;;;;;5.50;2.20;;;10.70;99.90;;;;;;5038350;28;20518;-58
2022/02/24 10:14:06;;;;;;;7.10;2.27;;;10.90;99.90;;;;;;5039250;28;20433;-58
2022/02/24 10:16:51;;;;;;;3.47;2.30;;;10.90;99.90;;;;;;5038841;28;20511;-58
2022/02/24 10:19:19;;;;;;;3.90;2.30;;;10.90;99.90;;;;;;5039248;28;20487;-58
2022/02/24 10:22:12;;;;;;;5.93;2.67;;;10.80;99.90;;;;;;5039124;28;20457;-59
2022/02/24 10:24:40;;;;;;;9.23;2.10;;;10.60;99.90;;;;;;5038942;28;20461;-59
2022/02/24 10:27:21;;;;;;;3.10;2.10;;;10.40;99.90;;;;;;5038843;28;20926;-60
2022/02/24 10:30:02;;;;;;;6.37;2.30;;;10.30;99.90;;;;;;5039477;28;20542;-59
2022/02/24 10:32:30;;;;;;;4.53;2.47;;;10.10;99.90;;;;;;5038978;28;20432;-59
2022/02/24 10:35:19;;;;;;;4.30;1.37;;;10.00;99.90;;;;;;5038877;28;20767;-59
2022/02/24 10:37:53;;;;;;;5.77;1.90;;;9.80;99.90;;;;;;5039018;28;20489;-59
2022/02/24 10:40:20;;;;;;;3.87;1.97;;;9.80;99.90;;;;;;5039004;28;20464;-59
2022/02/24 10:42:46;;;;;;;8.33;2.10;;;9.80;99.90;;;;;;5038886;28;20502;-58
2022/02/24 10:45:17;;;;;;;3.93;3.07;;;9.80;99.90;;;;;;5038858;28;20506;-60
2022/02/24 10:47:56;;;;;;;3.20;2.40;;;9.80;99.90;;;;;;5038407;28;20475;-58
2022/02/24 10:50:51;;;;;;;7.00;2.90;;;9.80;99.90;;;;;;5038272;28;20456;-56
2022/02/24 10:53:22;;;;;;;5.93;2.30;;;9.90;99.90;;;;;;5039605;28;20425;-58
2022/02/24 10:55:57;;;;;;;5.03;2.17;;;9.90;99.90;;;;;;5041110;28;20414;-63
2022/02/24 10:58:25;;;;;;;6.73;2.93;;;9.80;99.90;;;;;;5040825;28;20428;-60
2022/02/24 11:01:07;;;;;;;14.00;3.57;;;9.80;99.90;;;;;;5039048;28;20468;-58
2022/02/24 11:03:34;;;;;;;9.50;4.60;;;9.80;99.90;;;;;;5038472;28;20500;-56
2022/02/24 11:06:05;;;;;;;13.73;2.63;;;9.80;99.90;;;;;;5038447;28;20447;-56
2022/02/24 11:08:34;;;;;;;3.77;2.40;;;9.80;99.90;;;;;;5038082;28;20468;-59
2022/02/24 11:11:02;;;;;;;3.83;2.67;;;9.70;99.90;;;;;;5038369;28;20416;-62
2022/02/24 11:13:30;;;;;;;8.50;3.20;;;9.70;99.90;;;;;;5039430;28;20448;-58
2022/02/24 11:15:57;;;;;;;7.60;2.20;;;9.60;99.90;;;;;;5039267;28;20472;-61
2022/02/24 11:18:25;;;;;;;8.10;2.40;;;9.60;99.90;;;;;;5039538;28;20452;-59
2022/02/24 11:20:52;;;;;;;6.27;3.30;;;9.60;99.90;;;;;;5039422;28;20480;-62
2022/02/24 11:23:19;;;;;;;9.93;3.17;;;9.60;99.90;;;;;;5039906;28;20492;-62
2022/02/24 11:25:55;;;;;;;3.27;2.27;;;9.70;99.90;;;;;;5039023;28;20479;-60
2022/02/24 11:28:23;;;;;;;4.70;2.87;;;9.60;99.90;;;;;;5038765;28;20428;-61
2022/02/24 11:30:57;;;;;;;3.43;2.33;;;9.60;99.90;;;;;;5037733;28;20441;-59
2022/02/24 11:33:24;;;;;;;3.70;2.60;;;9.60;99.90;;;;;;5037937;28;20428;-61
2022/02/24 11:36:09;;;;;;;11.07;2.73;;;9.60;99.90;;;;;;5037993;28;20456;-61
2022/02/24 11:38:36;;;;;;;5.27;2.70;;;9.60;99.90;;;;;;5037857;28;20443;-61
2022/02/24 11:41:09;;;;;;;6.63;2.37;;;9.70;99.90;;;;;;5037774;28;20466;-59
2022/02/24 11:43:37;;;;;;;6.80;2.83;;;9.70;99.90;;;;;;5037368;28;20526;-61
2022/02/24 11:46:06;;;;;;;4.80;2.60;;;9.80;99.90;;;;;;5037906;28;20449;-59
2022/02/24 11:48:36;;;;;;;4.43;2.20;;;9.80;99.90;;;;;;5037800;28;20472;-60
2022/02/24 11:51:04;;;;;;;3.57;2.33;;;9.80;99.90;;;;;;5037277;28;20471;-60
2022/02/24 11:53:34;;;;;;;3.83;2.60;;;9.90;99.90;;;;;;5037309;28;20479;-59
2022/02/24 11:56:02;;;;;;;6.93;2.80;;;9.90;99.90;;;;;;5042808;28;20428;-58
2022/02/24 11:58:35;;;;;;;5.50;3.10;;;9.90;99.90;;;;;;5045371;28;20465;-58
2022/02/24 12:01:17;;;;;;;5.20;3.40;;;9.90;99.90;;;;;;5048278;28;20535;-60
2022/02/24 12:03:58;;;;;;;8.50;3.37;;;9.90;99.90;;;;;;5048644;28;20471;-60
2022/02/24 12:06:41;;;;;;;7.57;3.50;;;9.90;99.90;;;;;;5048434;28;20476;-64
2022/02/24 12:09:09;;;;;;;7.27;3.33;;;9.80;99.90;;;;;;5047742;28;20436;-58
2022/02/24 12:11:39;;;;;;;10.87;3.00;;;9.90;99.90;;;;;;5047487;28;20472;-59
2022/02/24 12:14:44;;;;;;;9.33;3.07;;;9.90;99.90;;;;;;5047935;28;20554;-60
2022/02/24 12:17:13;;;;;;;11.70;4.37;;;9.90;99.90;;;;;;5048609;28;20453;-59
2022/02/24 12:19:46;;;;;;;6.70;2.97;;;10.00;99.90;;;;;;5048553;28;20427;-64
2022/02/24 12:22:16;;;;;;;6.97;3.07;;;10.10;99.90;;;;;;5047587;28;20439;-60
2022/02/24 12:24:45;;;;;;;3.37;2.47;;;10.10;99.90;;;;;;5047548;28;20501;-60
2022/02/24 12:27:34;;;;;;;5.40;2.53;;;10.10;99.90;;;;;;5047692;28;20479;-61
2022/02/24 12:30:14;;;;;;;6.30;3.07;;;10.10;99.90;;;;;;5048063;28;20459;-63
2022/02/24 12:32:47;;;;;;;7.23;3.67;;;10.10;99.90;;;;;;5051490;28;20434;-62
2022/02/24 12:35:16;;;;;;;10.87;3.60;;;10.10;99.90;;;;;;5050906;28;20468;-59
2022/02/24 12:37:44;;;;;;;3.57;2.40;;;10.20;99.90;;;;;;5050654;28;20483;-58
2022/02/24 12:40:16;;;;;;;5.23;2.37;;;10.10;99.90;;;;;;5049844;28;20482;-61
2022/02/24 12:42:43;;;;;;;4.37;3.27;;;10.20;99.90;;;;;;5049866;28;20520;-58
2022/02/24 12:45:11;;;;;;;5.90;3.00;;;10.20;99.90;;;;;;5050249;28;20514;-60
2022/02/24 12:47:38;;;;;;;4.17;2.53;;;10.20;99.90;;;;;;5050611;28;20446;-58
2022/02/24 12:50:06;;;;;;;6.30;2.90;;;10.20;99.90;;;;;;5050385;28;20448;-59
2022/02/24 12:52:33;;;;;;;6.17;2.40;;;10.20;99.90;;;;;;5049477;28;20543;-59
2022/02/24 12:55:00;;;;;;;3.80;2.37;;;10.30;99.90;;;;;;5050219;28;20521;-60
2022/02/24 12:57:30;;;;;;;4.40;2.00;;;10.30;99.90;;;;;;5050039;28;20472;-61
2022/02/24 12:59:57;;;;;;;4.57;2.10;;;10.40;99.90;;;;;;5050612;28;20937;-59